sensor_id;sensor_type;location;lat;lon;timestamp;pressure;altitude;pressure_sealevel;temperature;humidity
48035;BME280;33812;46.480;6.834;2023-04-26T00:01:00;93570.31;;;21.86;36.16
48035;BME280;33812;46.480;6.834;2023-04-26T00:05:05;93580.59;;;21.86;36.09
48035;BME280;33812;46.480;6.834;2023-04-26T00:09:09;93584.28;;;21.83;36.17
48035;BME280;33812;46.480;6.834;2023-04-26T00:13:11;93578.75;;;21.83;36.17
48035;BME280;33812;46.480;6.834;2023-04-26T00:17:13;93582.28;;;21.83;36.36
48035;BME280;33812;46.480;6.834;2023-04-26T00:21:15;93579.19;;;21.81;36.27
48035;BME280;33812;46.480;6.834;2023-04-26T00:25:18;93583.50;;;21.82;36.00
48035;BME280;33812;46.480;6.834;2023-04-26T00:29:20;93583.16;;;21.80;36.05
48035;BME280;33812;46.480;6.834;2023-04-26T00:33:22;93591.03;;;21.82;36.03
48035;BME280;33812;46.480;6.834;2023-04-26T00:37:24;93587.16;;;21.79;36.02
48035;BME280;33812;46.480;6.834;2023-04-26T00:41:27;93582.03;;;21.78;35.79
48035;BME280;33812;46.480;6.834;2023-04-26T00:45:29;93587.94;;;21.80;35.86
48035;BME280;33812;46.480;6.834;2023-04-26T00:49:31;93583.16;;;21.80;35.70
48035;BME280;33812;46.480;6.834;2023-04-26T00:53:33;93588.34;;;21.78;35.73
48035;BME280;33812;46.480;6.834;2023-04-26T00:57:36;93582.03;;;21.78;35.88
48035;BME280;33812;46.480;6.834;2023-04-26T01:01:39;93584.47;;;21.76;35.93
48035;BME280;33812;46.480;6.834;2023-04-26T01:05:41;93583.41;;;21.73;35.92
48035;BME280;33812;46.480;6.834;2023-04-26T01:09:43;93582.94;;;21.74;35.89
48035;BME280;33812;46.480;6.834;2023-04-26T01:13:47;93571.53;;;21.72;35.90
48035;BME280;33812;46.480;6.834;2023-04-26T01:17:50;93573.09;;;21.73;35.81
48035;BME280;33812;46.480;6.834;2023-04-26T01:21:52;93568.00;;;21.72;35.87
48035;BME280;33812;46.480;6.834;2023-04-26T01:25:55;93564.47;;;21.71;35.98
48035;BME280;33812;46.480;6.834;2023-04-26T01:29:57;93565.56;;;21.74;35.93
48035;BME280;33812;46.480;6.834;2023-04-26T01:34:00;93564.47;;;21.71;35.95
48035;BME280;33812;46.480;6.834;2023-04-26T01:42:05;93576.41;;;21.68;35.84
48035;BME280;33812;46.480;6.834;2023-04-26T01:46:12;93572.44;;;21.69;35.76
48035;BME280;33812;46.480;6.834;2023-04-26T01:50:15;93579.50;;;21.70;35.64
48035;BME280;33812;46.480;6.834;2023-04-26T01:54:17;93570.44;;;21.70;35.62
48035;BME280;33812;46.480;6.834;2023-04-26T01:58:20;93566.91;;;21.69;35.55
48035;BME280;33812;46.480;6.834;2023-04-26T02:02:22;93567.38;;;21.68;35.55
48035;BME280;33812;46.480;6.834;2023-04-26T02:06:24;93572.56;;;21.66;35.59
48035;BME280;33812;46.480;6.834;2023-04-26T02:10:26;93569.81;;;21.66;35.65
48035;BME280;33812;46.480;6.834;2023-04-26T02:14:29;93560.28;;;21.67;35.48
48035;BME280;33812;46.480;6.834;2023-04-26T02:18:30;93556.75;;;21.66;35.60
48035;BME280;33812;46.480;6.834;2023-04-26T02:22:32;93554.75;;;21.67;35.51
48035;BME280;33812;46.480;6.834;2023-04-26T02:26:34;93553.66;;;21.64;35.55
48035;BME280;33812;46.480;6.834;2023-04-26T02:30:37;93552.88;;;21.64;35.41
48035;BME280;33812;46.480;6.834;2023-04-26T02:34:39;93546.13;;;21.65;35.38
48035;BME280;33812;46.480;6.834;2023-04-26T02:38:42;93548.13;;;21.64;35.45
48035;BME280;33812;46.480;6.834;2023-04-26T02:42:44;93540.28;;;21.62;35.52
48035;BME280;33812;46.480;6.834;2023-04-26T02:46:47;93543.34;;;21.65;35.45
48035;BME280;33812;46.480;6.834;2023-04-26T02:50:50;93544.25;;;21.61;35.50
48035;BME280;33812;46.480;6.834;2023-04-26T02:54:51;93543.78;;;21.63;35.40
48035;BME280;33812;46.480;6.834;2023-04-26T02:58:53;93543.50;;;21.61;35.43
48035;BME280;33812;46.480;6.834;2023-04-26T03:02:56;93545.81;;;21.62;35.36
48035;BME280;33812;46.480;6.834;2023-04-26T03:06:58;93541.03;;;21.63;35.38
48035;BME280;33812;46.480;6.834;2023-04-26T03:11:00;93539.03;;;21.64;35.54
48035;BME280;33812;46.480;6.834;2023-04-26T03:15:02;93546.25;;;21.61;35.07
48035;BME280;33812;46.480;6.834;2023-04-26T03:19:08;93541.16;;;21.59;35.14
48035;BME280;33812;46.480;6.834;2023-04-26T03:23:10;93543.16;;;21.59;34.89
48035;BME280;33812;46.480;6.834;2023-04-26T03:27:13;93536.53;;;21.56;35.00
48035;BME280;33812;46.480;6.834;2023-04-26T03:31:15;93536.06;;;21.58;35.02
48035;BME280;33812;46.480;6.834;2023-04-26T03:35:22;93541.16;;;21.59;35.25
48035;BME280;33812;46.480;6.834;2023-04-26T03:39:23;93540.41;;;21.59;35.20
48035;BME280;33812;46.480;6.834;2023-04-26T03:43:25;93544.38;;;21.58;35.03
48035;BME280;33812;46.480;6.834;2023-04-26T03:47:27;93545.94;;;21.59;34.94
48035;BME280;33812;46.480;6.834;2023-04-26T03:51:30;93542.03;;;21.56;35.15
48035;BME280;33812;46.480;6.834;2023-04-26T03:55:32;93545.59;;;21.57;35.05
48035;BME280;33812;46.480;6.834;2023-04-26T03:59:33;93536.63;;;21.53;34.96
48035;BME280;33812;46.480;6.834;2023-04-26T04:03:35;93536.53;;;21.56;35.07
48035;BME280;33812;46.480;6.834;2023-04-26T04:07:38;93527.03;;;21.57;35.08
48035;BME280;33812;46.480;6.834;2023-04-26T04:11:40;93523.16;;;21.55;34.82
48035;BME280;33812;46.480;6.834;2023-04-26T04:15:42;93527.13;;;21.54;34.86
48035;BME280;33812;46.480;6.834;2023-04-26T04:19:45;93539.72;;;21.55;34.86
48035;BME280;33812;46.480;6.834;2023-04-26T04:23:48;93534.31;;;21.51;34.73
48035;BME280;33812;46.480;6.834;2023-04-26T04:27:49;93541.25;;;21.56;34.69
48035;BME280;33812;46.480;6.834;2023-04-26T04:31:52;93549.25;;;21.54;34.73
48035;BME280;33812;46.480;6.834;2023-04-26T04:35:55;93551.69;;;21.52;34.56
48035;BME280;33812;46.480;6.834;2023-04-26T04:39:58;93553.22;;;21.53;34.63
48035;BME280;33812;46.480;6.834;2023-04-26T04:44:00;93551.91;;;21.57;34.61
48035;BME280;33812;46.480;6.834;2023-04-26T04:48:03;93558.31;;;21.54;34.69
48035;BME280;33812;46.480;6.834;2023-04-26T04:52:06;93571.69;;;21.56;34.94
48035;BME280;33812;46.480;6.834;2023-04-26T04:56:09;93570.16;;;21.55;34.83
48035;BME280;33812;46.480;6.834;2023-04-26T05:00:12;93569.81;;;21.66;35.11
48035;BME280;33812;46.480;6.834;2023-04-26T05:04:15;93575.56;;;21.58;35.09
48035;BME280;33812;46.480;6.834;2023-04-26T05:08:17;93575.22;;;21.56;34.65
48035;BME280;33812;46.480;6.834;2023-04-26T05:12:24;93582.31;;;21.57;34.72
48035;BME280;33812;46.480;6.834;2023-04-26T05:16:26;93587.47;;;21.68;35.04
48035;BME280;33812;46.480;6.834;2023-04-26T05:20:30;93594.50;;;21.34;32.89
48035;BME280;33812;46.480;6.834;2023-04-26T05:24:38;93588.31;;;21.43;32.62
48035;BME280;33812;46.480;6.834;2023-04-26T05:28:44;93590.97;;;21.46;32.81
48035;BME280;33812;46.480;6.834;2023-04-26T05:32:48;93603.56;;;21.47;32.87
48035;BME280;33812;46.480;6.834;2023-04-26T05:36:52;93599.59;;;21.48;32.79
48035;BME280;33812;46.480;6.834;2023-04-26T05:40:56;93598.03;;;21.60;32.76
48035;BME280;33812;46.480;6.834;2023-04-26T05:44:59;93600.78;;;21.47;32.75
48035;BME280;33812;46.480;6.834;2023-04-26T05:49:02;93596.03;;;21.48;32.61
48035;BME280;33812;46.480;6.834;2023-04-26T05:53:04;93597.59;;;21.49;32.64
48035;BME280;33812;46.480;6.834;2023-04-26T05:57:06;93601.56;;;21.48;32.67
48035;BME280;33812;46.480;6.834;2023-04-26T06:01:09;93603.66;;;21.44;32.67
48035;BME280;33812;46.480;6.834;2023-04-26T06:05:11;93595.81;;;21.55;33.42
48035;BME280;33812;46.480;6.834;2023-04-26T06:09:13;93611.63;;;21.55;33.79
48035;BME280;33812;46.480;6.834;2023-04-26T06:13:17;93603.56;;;21.60;33.74
48035;BME280;33812;46.480;6.834;2023-04-26T06:17:20;93615.81;;;21.59;33.83
48035;BME280;33812;46.480;6.834;2023-04-26T06:21:22;93618.47;;;21.63;34.00
48035;BME280;33812;46.480;6.834;2023-04-26T06:25:31;93621.03;;;21.57;33.84
48035;BME280;33812;46.480;6.834;2023-04-26T06:29:33;93621.25;;;21.50;33.75
48035;BME280;33812;46.480;6.834;2023-04-26T06:33:36;93623.59;;;21.52;33.97
48035;BME280;33812;46.480;6.834;2023-04-26T06:37:41;93619.34;;;21.60;34.19
48035;BME280;33812;46.480;6.834;2023-04-26T06:41:42;93609.19;;;21.57;34.60
48035;BME280;33812;46.480;6.834;2023-04-26T06:45:51;93603.88;;;21.49;34.18
48035;BME280;33812;46.480;6.834;2023-04-26T06:49:57;93603.09;;;21.49;34.25
48035;BME280;33812;46.480;6.834;2023-04-26T06:54:00;93612.84;;;21.54;33.72
48035;BME280;33812;46.480;6.834;2023-04-26T06:58:02;93605.75;;;21.53;33.83
48035;BME280;33812;46.480;6.834;2023-04-26T07:02:07;93613.94;;;21.56;33.99
48035;BME280;33812;46.480;6.834;2023-04-26T07:06:10;93610.41;;;21.56;33.99
48035;BME280;33812;46.480;6.834;2023-04-26T07:10:20;93613.16;;;21.56;33.92
48035;BME280;33812;46.480;6.834;2023-04-26T07:14:22;93610.72;;;21.58;34.04
48035;BME280;33812;46.480;6.834;2023-04-26T07:18:23;93616.38;;;21.67;33.22
48035;BME280;33812;46.480;6.834;2023-04-26T07:22:27;93615.41;;;21.61;33.43
48035;BME280;33812;46.480;6.834;2023-04-26T07:26:28;93611.06;;;21.60;33.47
48035;BME280;33812;46.480;6.834;2023-04-26T07:30:32;93603.56;;;21.60;33.32
48035;BME280;33812;46.480;6.834;2023-04-26T07:34:35;93611.50;;;21.58;33.26
48035;BME280;33812;46.480;6.834;2023-04-26T07:38:40;93614.50;;;21.64;33.30
48035;BME280;33812;46.480;6.834;2023-04-26T07:42:42;93608.75;;;21.71;33.25
48035;BME280;33812;46.480;6.834;2023-04-26T07:46:43;93597.97;;;21.73;33.15
48035;BME280;33812;46.480;6.834;2023-04-26T07:50:46;93589.47;;;21.81;33.38
48035;BME280;33812;46.480;6.834;2023-04-26T07:54:57;93584.81;;;21.78;33.60
48035;BME280;33812;46.480;6.834;2023-04-26T07:59:00;93581.72;;;21.76;33.38
48035;BME280;33812;46.480;6.834;2023-04-26T08:03:03;93580.81;;;21.79;33.30
48035;BME280;33812;46.480;6.834;2023-04-26T08:07:04;93580.06;;;21.78;33.29
48035;BME280;33812;46.480;6.834;2023-04-26T08:11:08;93586.72;;;21.81;33.38
48035;BME280;33812;46.480;6.834;2023-04-26T08:15:11;93579.19;;;21.81;33.44
48035;BME280;33812;46.480;6.834;2023-04-26T08:19:14;93579.97;;;21.82;33.39
48035;BME280;33812;46.480;6.834;2023-04-26T08:23:18;93576.50;;;21.78;33.17
48035;BME280;33812;46.480;6.834;2023-04-26T08:31:52;93575.63;;;21.81;32.99
48035;BME280;33812;46.480;6.834;2023-04-26T08:35:56;93585.50;;;21.82;33.08
48035;BME280;33812;46.480;6.834;2023-04-26T08:40:06;93590.13;;;21.85;33.16
48035;BME280;33812;46.480;6.834;2023-04-26T08:44:21;93591.66;;;21.86;33.02
48035;BME280;33812;46.480;6.834;2023-04-26T08:48:27;93586.59;;;21.84;33.20
48035;BME280;33812;46.480;6.834;2023-04-26T08:52:31;93596.88;;;21.84;33.28
48035;BME280;33812;46.480;6.834;2023-04-26T08:56:38;93591.03;;;21.82;33.50
48035;BME280;33812;46.480;6.834;2023-04-26T09:00:54;93596.44;;;21.85;33.28
48035;BME280;33812;46.480;6.834;2023-04-26T09:05:00;93600.75;;;21.86;33.19
48035;BME280;33812;46.480;6.834;2023-04-26T09:09:03;93603.06;;;21.88;33.22
48035;BME280;33812;46.480;6.834;2023-04-26T09:13:08;93599.53;;;21.88;33.43
48035;BME280;33812;46.480;6.834;2023-04-26T09:17:30;93596.00;;;21.87;33.30
48035;BME280;33812;46.480;6.834;2023-04-26T09:21:41;93602.28;;;21.88;33.47
48035;BME280;33812;46.480;6.834;2023-04-26T09:25:43;93599.97;;;21.86;33.62
48035;BME280;33812;46.480;6.834;2023-04-26T09:30:03;93596.44;;;21.85;33.59
48035;BME280;33812;46.480;6.834;2023-04-26T09:34:05;93596.31;;;21.89;33.53
48035;BME280;33812;46.480;6.834;2023-04-26T09:38:12;93590.78;;;21.89;33.35
48035;BME280;33812;46.480;6.834;2023-04-26T09:42:17;93594.31;;;21.90;33.13
48035;BME280;33812;46.480;6.834;2023-04-26T09:46:21;93592.34;;;21.90;33.51
48035;BME280;33812;46.480;6.834;2023-04-26T09:50:25;93581.72;;;21.89;33.27
48035;BME280;33812;46.480;6.834;2023-04-26T09:54:44;93589.13;;;21.92;33.53
48035;BME280;33812;46.480;6.834;2023-04-26T09:58:55;93585.56;;;21.91;33.46
48035;BME280;33812;46.480;6.834;2023-04-26T10:03:07;93584.38;;;21.92;33.41
48035;BME280;33812;46.480;6.834;2023-04-26T10:07:13;93589.56;;;21.90;33.58
48035;BME280;33812;46.480;6.834;2023-04-26T10:11:17;93577.28;;;21.91;33.50
48035;BME280;33812;46.480;6.834;2023-04-26T10:15:25;93585.91;;;21.93;33.68
48035;BME280;33812;46.480;6.834;2023-04-26T10:19:28;93588.22;;;21.95;33.66
48035;BME280;33812;46.480;6.834;2023-04-26T10:23:32;93589.31;;;21.97;33.96
48035;BME280;33812;46.480;6.834;2023-04-26T10:27:53;93574.25;;;21.98;34.02
48035;BME280;33812;46.480;6.834;2023-04-26T10:32:07;93565.19;;;21.98;34.04
48035;BME280;33812;46.480;6.834;2023-04-26T10:36:12;93567.50;;;22.00;33.90
48035;BME280;33812;46.480;6.834;2023-04-26T10:40:24;93561.97;;;22.00;34.04
48035;BME280;33812;46.480;6.834;2023-04-26T10:44:41;93553.97;;;22.02;34.07
48035;BME280;33812;46.480;6.834;2023-04-26T10:48:46;93549.69;;;22.01;34.17
48035;BME280;33812;46.480;6.834;2023-04-26T10:53:04;93555.56;;;22.03;34.30
48035;BME280;33812;46.480;6.834;2023-04-26T10:57:06;93559.41;;;22.05;34.38
48035;BME280;33812;46.480;6.834;2023-04-26T11:01:14;93562.94;;;22.06;34.30
48035;BME280;33812;46.480;6.834;2023-04-26T11:05:34;93560.19;;;22.06;34.23
48035;BME280;33812;46.480;6.834;2023-04-26T11:09:47;93549.44;;;22.08;34.41
48035;BME280;33812;46.480;6.834;2023-04-26T11:13:55;93548.19;;;22.09;34.27
48035;BME280;33812;46.480;6.834;2023-04-26T11:18:02;93550.66;;;22.07;34.49
48035;BME280;33812;46.480;6.834;2023-04-26T11:22:12;93553.75;;;22.09;34.18
48035;BME280;33812;46.480;6.834;2023-04-26T11:26:31;93551.44;;;22.07;34.50
48035;BME280;33812;46.480;6.834;2023-04-26T11:30:34;93547.75;;;22.10;34.42
48035;BME280;33812;46.480;6.834;2023-04-26T11:34:39;93544.97;;;22.10;34.57
48035;BME280;33812;46.480;6.834;2023-04-26T11:38:57;93541.47;;;22.10;34.45
48035;BME280;33812;46.480;6.834;2023-04-26T11:43:03;93539.44;;;22.10;34.60
48035;BME280;33812;46.480;6.834;2023-04-26T11:47:05;93534.69;;;22.11;34.47
48035;BME280;33812;46.480;6.834;2023-04-26T11:51:14;93532.25;;;22.13;34.38
48035;BME280;33812;46.480;6.834;2023-04-26T11:55:23;93531.03;;;22.14;34.28
48035;BME280;33812;46.480;6.834;2023-04-26T11:59:27;93524.28;;;22.15;34.39
48035;BME280;33812;46.480;6.834;2023-04-26T12:03:30;93529.03;;;22.15;34.54
48035;BME280;33812;46.480;6.834;2023-04-26T12:07:36;93517.50;;;22.16;34.47
48035;BME280;33812;46.480;6.834;2023-04-26T12:11:39;93515.97;;;22.15;34.60
48035;BME280;33812;46.480;6.834;2023-04-26T12:15:41;93515.53;;;22.17;34.47
48035;BME280;33812;46.480;6.834;2023-04-26T12:19:49;93522.25;;;22.16;34.60
48035;BME280;33812;46.480;6.834;2023-04-26T12:23:58;93517.84;;;22.18;34.72
48035;BME280;33812;46.480;6.834;2023-04-26T12:28:02;93506.75;;;22.18;34.71
48035;BME280;33812;46.480;6.834;2023-04-26T12:32:14;93522.13;;;22.19;34.70
48035;BME280;33812;46.480;6.834;2023-04-26T12:36:16;93517.38;;;22.20;34.88
48035;BME280;33812;46.480;6.834;2023-04-26T12:40:20;93513.84;;;22.19;34.83
48035;BME280;33812;46.480;6.834;2023-04-26T12:44:23;93509.41;;;22.22;34.80
48035;BME280;33812;46.480;6.834;2023-04-26T12:48:32;93516.16;;;22.21;35.10
48035;BME280;33812;46.480;6.834;2023-04-26T12:52:34;93523.13;;;22.26;34.86
48035;BME280;33812;46.480;6.834;2023-04-26T12:56:37;93510.16;;;22.22;35.06
48035;BME280;33812;46.480;6.834;2023-04-26T13:00:43;93509.53;;;22.18;34.95
48035;BME280;33812;46.480;6.834;2023-04-26T13:04:44;93519.75;;;22.08;32.98
48035;BME280;33812;46.480;6.834;2023-04-26T13:08:46;93521.94;;;21.91;32.37
48035;BME280;33812;46.480;6.834;2023-04-26T13:12:50;93507.78;;;22.12;32.23
48035;BME280;33812;46.480;6.834;2023-04-26T13:16:53;93514.22;;;22.31;31.00
48035;BME280;33812;46.480;6.834;2023-04-26T13:20:55;93519.63;;;22.12;30.95
48035;BME280;33812;46.480;6.834;2023-04-26T13:24:56;93518.22;;;22.07;31.44
48035;BME280;33812;46.480;6.834;2023-04-26T13:29:00;93516.47;;;22.01;31.06
48035;BME280;33812;46.480;6.834;2023-04-26T13:33:02;93515.25;;;22.02;29.40
48035;BME280;33812;46.480;6.834;2023-04-26T13:37:05;93518.34;;;22.04;29.30
48035;BME280;33812;46.480;6.834;2023-04-26T13:41:07;93518.66;;;22.06;29.67
48035;BME280;33812;46.480;6.834;2023-04-26T13:45:11;93504.84;;;22.06;29.67
48035;BME280;33812;46.480;6.834;2023-04-26T13:49:13;93510.69;;;22.08;29.03
48035;BME280;33812;46.480;6.834;2023-04-26T13:53:16;93511.28;;;22.03;28.92
48035;BME280;33812;46.480;6.834;2023-04-26T13:57:19;93504.72;;;21.87;29.37
48035;BME280;33812;46.480;6.834;2023-04-26T14:01:22;93499.19;;;21.87;29.53
48035;BME280;33812;46.480;6.834;2023-04-26T14:05:24;93501.59;;;21.85;28.91
48035;BME280;33812;46.480;6.834;2023-04-26T14:09:25;93505.47;;;21.88;29.24
48035;BME280;33812;46.480;6.834;2023-04-26T14:13:27;93502.25;;;21.89;28.94
48035;BME280;33812;46.480;6.834;2023-04-26T14:17:32;93501.09;;;22.00;27.05
48035;BME280;33812;46.480;6.834;2023-04-26T14:21:34;93502.44;;;21.95;29.05
48035;BME280;33812;46.480;6.834;2023-04-26T14:25:35;93506.25;;;21.88;28.39
48035;BME280;33812;46.480;6.834;2023-04-26T14:29:38;93502.91;;;21.93;27.38
48035;BME280;33812;46.480;6.834;2023-04-26T14:33:42;93497.56;;;21.99;28.79
48035;BME280;33812;46.480;6.834;2023-04-26T14:37:43;93498.00;;;21.97;28.20
48035;BME280;33812;46.480;6.834;2023-04-26T14:41:45;93507.41;;;22.00;27.45
48035;BME280;33812;46.480;6.834;2023-04-26T14:45:48;93502.31;;;21.98;28.18
48035;BME280;33812;46.480;6.834;2023-04-26T14:49:51;93502.66;;;22.01;27.21
48035;BME280;33812;46.480;6.834;2023-04-26T14:53:54;93495.13;;;22.01;27.05
48035;BME280;33812;46.480;6.834;2023-04-26T14:57:56;93485.25;;;22.00;26.85
48035;BME280;33812;46.480;6.834;2023-04-26T15:01:58;93488.34;;;22.02;27.57
48035;BME280;33812;46.480;6.834;2023-04-26T15:06:01;93488.47;;;21.98;26.99
48035;BME280;33812;46.480;6.834;2023-04-26T15:10:04;93493.34;;;21.94;27.37
48035;BME280;33812;46.480;6.834;2023-04-26T15:14:07;93494.59;;;21.93;27.14
48035;BME280;33812;46.480;6.834;2023-04-26T15:18:09;93488.16;;;21.96;26.38
48035;BME280;33812;46.480;6.834;2023-04-26T15:22:12;93488.47;;;21.98;26.89
48035;BME280;33812;46.480;6.834;2023-04-26T15:26:14;93496.31;;;22.00;27.04
48035;BME280;33812;46.480;6.834;2023-04-26T15:30:16;93497.56;;;21.99;27.33
48035;BME280;33812;46.480;6.834;2023-04-26T15:34:17;93492.34;;;22.01;27.56
48035;BME280;33812;46.480;6.834;2023-04-26T15:38:22;93486.03;;;22.01;27.19
48035;BME280;33812;46.480;6.834;2023-04-26T15:42:24;93483.19;;;21.91;26.73
48035;BME280;33812;46.480;6.834;2023-04-26T15:46:25;93483.41;;;21.97;28.09
48035;BME280;33812;46.480;6.834;2023-04-26T15:50:27;93488.94;;;21.97;27.36
48035;BME280;33812;46.480;6.834;2023-04-26T15:54:30;93490.78;;;22.00;28.45
48035;BME280;33812;46.480;6.834;2023-04-26T15:58:32;93486.38;;;22.03;29.05
48035;BME280;33812;46.480;6.834;2023-04-26T16:02:36;93493.09;;;22.02;29.55
48035;BME280;33812;46.480;6.834;2023-04-26T16:06:37;93482.50;;;22.00;29.88
48035;BME280;33812;46.480;6.834;2023-04-26T16:10:40;93493.09;;;22.02;29.75
48035;BME280;33812;46.480;6.834;2023-04-26T16:14:43;93490.66;;;22.04;30.13
48035;BME280;33812;46.480;6.834;2023-04-26T16:18:45;93492.97;;;22.05;29.75
48035;BME280;33812;46.480;6.834;2023-04-26T16:22:48;93489.88;;;22.03;31.04
48035;BME280;33812;46.480;6.834;2023-04-26T16:26:51;93501.28;;;22.05;30.01
48035;BME280;33812;46.480;6.834;2023-04-26T16:30:53;93500.22;;;22.03;30.64
48035;BME280;33812;46.480;6.834;2023-04-26T16:34:56;93498.63;;;22.02;29.37
48035;BME280;33812;46.480;6.834;2023-04-26T16:38:58;93497.88;;;22.01;28.46
48035;BME280;33812;46.480;6.834;2023-04-26T16:43:02;93491.50;;;21.91;28.95
48035;BME280;33812;46.480;6.834;2023-04-26T16:47:07;93487.06;;;21.94;27.51
48035;BME280;33812;46.480;6.834;2023-04-26T16:51:09;93490.16;;;21.96;28.20
48035;BME280;33812;46.480;6.834;2023-04-26T16:55:10;93493.22;;;21.98;28.57
48035;BME280;33812;46.480;6.834;2023-04-26T16:59:17;93495.56;;;22.00;28.92
48035;BME280;33812;46.480;6.834;2023-04-26T17:03:19;93495.25;;;21.97;28.97
48035;BME280;33812;46.480;6.834;2023-04-26T17:07:21;93493.75;;;22.06;30.19
48035;BME280;33812;46.480;6.834;2023-04-26T17:11:23;93495.81;;;21.92;30.58
48035;BME280;33812;46.480;6.834;2023-04-26T17:15:28;93498.59;;;21.92;30.46
48035;BME280;33812;46.480;6.834;2023-04-26T17:19:29;93502.25;;;21.89;30.81
48035;BME280;33812;46.480;6.834;2023-04-26T17:23:32;93507.53;;;21.96;30.99
48035;BME280;33812;46.480;6.834;2023-04-26T17:27:36;93503.22;;;21.95;32.09
48035;BME280;33812;46.480;6.834;2023-04-26T17:31:40;93509.22;;;21.94;31.18
48035;BME280;33812;46.480;6.834;2023-04-26T17:35:41;93507.16;;;21.85;30.90
48035;BME280;33812;46.480;6.834;2023-04-26T17:39:43;93519.38;;;21.97;31.60
48035;BME280;33812;46.480;6.834;2023-04-26T17:43:45;93515.78;;;22.09;32.98
48035;BME280;33812;46.480;6.834;2023-04-26T17:47:48;93515.31;;;21.89;31.46
48035;BME280;33812;46.480;6.834;2023-04-26T17:51:52;93519.28;;;21.88;31.69
48035;BME280;33812;46.480;6.834;2023-04-26T17:55:53;93514.63;;;21.97;32.67
48035;BME280;33812;46.480;6.834;2023-04-26T17:59:55;93520.28;;;21.94;32.83
48035;BME280;33812;46.480;6.834;2023-04-26T18:03:59;93514.63;;;21.97;34.16
48035;BME280;33812;46.480;6.834;2023-04-26T18:08:01;93530.09;;;21.95;32.38
48035;BME280;33812;46.480;6.834;2023-04-26T18:12:03;93531.03;;;21.79;31.41
48035;BME280;33812;46.480;6.834;2023-04-26T18:16:05;93528.38;;;21.88;31.84
48035;BME280;33812;46.480;6.834;2023-04-26T18:20:09;93525.16;;;21.90;31.64
48035;BME280;33812;46.480;6.834;2023-04-26T18:24:12;93522.59;;;21.95;31.57
48035;BME280;33812;46.480;6.834;2023-04-26T18:28:14;93524.78;;;22.01;31.70
48035;BME280;33812;46.480;6.834;2023-04-26T18:32:16;93525.09;;;22.03;32.06
48035;BME280;33812;46.480;6.834;2023-04-26T18:36:20;93533.44;;;21.90;31.27
48035;BME280;33812;46.480;6.834;2023-04-26T18:40:21;93531.91;;;21.89;32.54
48035;BME280;33812;46.480;6.834;2023-04-26T18:44:38;93534.03;;;21.84;33.30
48035;BME280;33812;46.480;6.834;2023-04-26T18:48:42;93541.75;;;21.90;33.73
48035;BME280;33812;46.480;6.834;2023-04-26T18:52:46;93542.75;;;21.96;35.08
48035;BME280;33812;46.480;6.834;2023-04-26T18:56:47;93553.75;;;22.09;36.01
48035;BME280;33812;46.480;6.834;2023-04-26T19:00:49;93552.72;;;22.16;36.42
48035;BME280;33812;46.480;6.834;2023-04-26T19:04:54;93560.25;;;22.15;36.11
48035;BME280;33812;46.480;6.834;2023-04-26T19:08:58;93566.09;;;22.17;36.17
48035;BME280;33812;46.480;6.834;2023-04-26T19:13:00;93569.31;;;22.16;36.39
48035;BME280;33812;46.480;6.834;2023-04-26T19:17:02;93585.09;;;22.06;35.23
48035;BME280;33812;46.480;6.834;2023-04-26T19:21:08;93576.53;;;22.13;36.32
48035;BME280;33812;46.480;6.834;2023-04-26T19:25:14;93586.16;;;22.08;34.62
48035;BME280;33812;46.480;6.834;2023-04-26T19:29:19;93587.44;;;21.94;34.98
48035;BME280;33812;46.480;6.834;2023-04-26T19:33:21;93585.81;;;21.84;34.34
48035;BME280;33812;46.480;6.834;2023-04-26T19:37:26;93586.47;;;21.75;34.25
48035;BME280;33812;46.480;6.834;2023-04-26T19:41:30;93590.13;;;21.85;34.96
48035;BME280;33812;46.480;6.834;2023-04-26T19:45:32;93599.03;;;22.02;35.28
48035;BME280;33812;46.480;6.834;2023-04-26T19:49:34;93591.44;;;21.93;34.73
48035;BME280;33812;46.480;6.834;2023-04-26T19:53:37;93599.63;;;21.97;35.69
48035;BME280;33812;46.480;6.834;2023-04-26T19:58:05;93598.81;;;22.09;35.71
48035;BME280;33812;46.480;6.834;2023-04-26T20:02:09;93599.16;;;21.98;34.88
48035;BME280;33812;46.480;6.834;2023-04-26T20:06:18;93597.56;;;22.10;35.54
48035;BME280;33812;46.480;6.834;2023-04-26T20:10:20;93606.13;;;22.03;34.71
48035;BME280;33812;46.480;6.834;2023-04-26T20:14:28;93602.78;;;22.08;35.08
48035;BME280;33812;46.480;6.834;2023-04-26T20:18:32;93603.56;;;22.09;35.13
48035;BME280;33812;46.480;6.834;2023-04-26T20:22:40;93609.66;;;22.04;34.35
48035;BME280;33812;46.480;6.834;2023-04-26T20:26:53;93617.06;;;22.07;33.92
48035;BME280;33812;46.480;6.834;2023-04-26T20:31:00;93621.72;;;22.10;34.86
48035;BME280;33812;46.480;6.834;2023-04-26T20:35:02;93611.72;;;22.13;34.85
48035;BME280;33812;46.480;6.834;2023-04-26T20:39:12;93611.00;;;21.99;33.32
48035;BME280;33812;46.480;6.834;2023-04-26T20:43:14;93613.91;;;21.95;32.97
48035;BME280;33812;46.480;6.834;2023-04-26T20:47:21;93620.09;;;21.73;32.95
48035;BME280;33812;46.480;6.834;2023-04-26T20:51:23;93617.34;;;21.73;32.82
48035;BME280;33812;46.480;6.834;2023-04-26T20:55:27;93614.00;;;21.79;33.83
48035;BME280;33812;46.480;6.834;2023-04-26T20:59:47;93624.44;;;21.74;33.10
48035;BME280;33812;46.480;6.834;2023-04-26T21:03:52;93618.59;;;21.85;33.63
48035;BME280;33812;46.480;6.834;2023-04-26T21:07:57;93611.50;;;21.84;32.78
48035;BME280;33812;46.480;6.834;2023-04-26T21:11:59;93606.28;;;21.86;33.74
48035;BME280;33812;46.480;6.834;2023-04-26T21:16:05;93614.91;;;21.89;33.81
48035;BME280;33812;46.480;6.834;2023-04-26T21:20:10;93616.13;;;21.88;33.95
48035;BME280;33812;46.480;6.834;2023-04-26T21:24:21;93624.78;;;21.77;32.84
48035;BME280;33812;46.480;6.834;2023-04-26T21:28:23;93628.88;;;21.85;33.65
48035;BME280;33812;46.480;6.834;2023-04-26T21:32:25;93621.13;;;21.80;33.95
48035;BME280;33812;46.480;6.834;2023-04-26T21:36:28;93619.66;;;21.88;34.30
48035;BME280;33812;46.480;6.834;2023-04-26T21:40:32;93618.69;;;21.82;33.87